KBFF/BFF METAR and TAF weather

Enter ICAO airport designator
Station Type Date Time Source
KBFF METAR 2019/10/18 10:53 UTC NOAA

KBFF 181053Z AUTO 33007KT 10SM CLR 05/M03 A2950 RMK AO2 SLP959 T00501028


Station Type Date Time Source
KBFF Decoded METAR 2019/10/18 10:53 UTC NOAA

SCOTTSBLUFF HEILIG FIELD, NE, United States (KBFF) 41-52N 103-36W 1203M
Oct 18, 2019 - 06:53 AM EDT / 2019.10.18 1053 UTC
Wind: from the NNW (330 degrees) at 8 MPH (7 KT):0
Visibility: 10 mile(s):0
Sky conditions: clear
Temperature: 41.0 F (5.0 C)
Dew Point: 27.0 F (-2.8 C)
Relative Humidity: 57%
Pressure (altimeter): 29.5 in. Hg (998 hPa)
ob: KBFF 181053Z AUTO 33007KT 10SM CLR 05/M03 A2950 RMK AO2 SLP959 T00501028
cycle: 11

Station Type Date Time Source
KBFF TAF 2019/10/18 06:22 UTC NOAA

TAF KBFF 180520Z 1806/1906 31006KT P6SM BKN200
FM181500 30016G26KT P6SM BKN250
FM181700 31020G30KT P6SM BKN250
FM182300 32011G21KT P6SM BKN250

Example: see airport list